createdAt,value
2023-02-18T00:14:18.822Z,1011.847
2023-02-18T00:44:37.351Z,1011.6260000000001
2023-02-18T01:14:56.076Z,1011.808
2023-02-18T01:45:14.651Z,1011.5989999999999
2023-02-18T02:15:34.337Z,1011.385
2023-02-18T02:46:00.464Z,1010.94
2023-02-18T03:16:28.408Z,1010.816
2023-02-18T03:46:46.545Z,1010.752
2023-02-18T04:17:06.569Z,1010.592
2023-02-18T04:47:29.288Z,1010.585
2023-02-18T05:17:47.527Z,1010.4739999999999
2023-02-18T05:48:14.912Z,1009.921
2023-02-18T06:18:36.428Z,1009.637
2023-02-18T06:48:56.126Z,1009.908
2023-02-18T07:19:16.070Z,1009.872
2023-02-18T07:49:39.585Z,1010.0239999999999
2023-02-18T08:20:05.643Z,1009.6260000000001
2023-02-18T08:50:24.399Z,1009.955
2023-02-18T09:20:48.370Z,1009.791
2023-02-18T09:51:08.105Z,1009.9110000000001
2023-02-18T10:51:52.662Z,1009.812
2023-02-18T11:22:13.822Z,1009.6489999999999
2023-02-18T11:52:59.134Z,1009.444
2023-02-18T12:23:34.202Z,1008.8560000000001
2023-02-18T12:54:00.842Z,1008.83
2023-02-18T13:24:20.632Z,1008.8660000000001
2023-02-18T13:54:36.456Z,1008.94
2023-02-18T14:24:54.385Z,1008.967
2023-02-18T14:55:30.871Z,1008.9680000000001
2023-02-18T15:57:06.144Z,1008.737
2023-02-18T16:27:25.698Z,1008.683
2023-02-18T16:57:53.036Z,1008.962
2023-02-18T17:28:09.877Z,1009.15
2023-02-18T17:58:27.041Z,1009.3530000000001
2023-02-18T18:28:45.686Z,1009.6010000000001
2023-02-18T18:59:11.765Z,1009.554
2023-02-18T19:29:29.349Z,1009.558
2023-02-18T19:59:46.006Z,1009.336
2023-02-18T20:30:04.365Z,1009.191
2023-02-18T21:00:25.451Z,1008.939
2023-02-18T21:30:43.097Z,1008.808
2023-02-18T22:01:02.622Z,1008.582
2023-02-18T22:31:21.569Z,1008.415
2023-02-18T23:01:39.314Z,1008.258
2023-02-18T23:31:56.894Z,1008.057
